createdAt,value
2018-09-24T00:00:13.099Z,79.50
2018-09-24T00:02:42.695Z,79.20
2018-09-24T00:05:11.483Z,78.20
2018-09-24T00:07:41.273Z,79.70
2018-09-24T00:10:10.910Z,79.20
2018-09-24T00:12:40.701Z,78.10
2018-09-24T00:15:10.234Z,78.20
2018-09-24T00:17:39.013Z,78.70
2018-09-24T00:20:08.982Z,78.60
2018-09-24T00:22:37.509Z,79.40
2018-09-24T00:25:06.427Z,79.70
2018-09-24T00:27:35.192Z,79.60
2018-09-24T00:30:04.198Z,81.00
2018-09-24T00:32:34.911Z,79.50
2018-09-24T00:35:04.463Z,80.00
2018-09-24T00:37:33.959Z,80.20
2018-09-24T00:40:02.988Z,80.10
2018-09-24T00:42:33.321Z,79.90
2018-09-24T00:45:02.162Z,79.40
2018-09-24T00:47:32.156Z,79.80
2018-09-24T00:50:01.163Z,80.80
2018-09-24T00:52:31.032Z,80.70
2018-09-24T00:54:59.989Z,80.60
2018-09-24T00:57:29.095Z,80.90
2018-09-24T00:59:58.757Z,81.30
2018-09-24T01:02:27.538Z,81.20
2018-09-24T01:04:56.566Z,80.00
2018-09-24T01:07:25.476Z,80.40
2018-09-24T01:09:54.199Z,80.30
2018-09-24T01:12:22.973Z,80.00
2018-09-24T01:14:52.003Z,79.90
2018-09-24T01:17:22.043Z,81.30
2018-09-24T01:19:50.899Z,82.40
2018-09-24T01:22:19.370Z,81.50
2018-09-24T01:24:49.646Z,80.60
2018-09-24T01:27:18.970Z,80.20
2018-09-24T01:29:47.992Z,79.80
2018-09-24T01:32:17.432Z,80.00
2018-09-24T01:34:46.291Z,79.40
2018-09-24T01:37:15.320Z,79.00
2018-09-24T01:39:44.797Z,78.80
2018-09-24T01:42:13.760Z,78.10
2018-09-24T01:44:43.322Z,78.40
2018-09-24T01:47:12.771Z,78.60
2018-09-24T01:49:42.363Z,78.40
2018-09-24T01:52:11.419Z,77.50
2018-09-24T01:54:41.581Z,78.30
2018-09-24T01:57:17.132Z,78.60
2018-09-24T01:59:54.559Z,78.70
2018-09-24T02:02:23.792Z,78.40
2018-09-24T02:04:52.607Z,79.90
2018-09-24T02:07:21.334Z,78.80
2018-09-24T02:09:50.140Z,78.30
2018-09-24T02:12:19.204Z,78.10
2018-09-24T02:14:47.974Z,77.80
2018-09-24T02:17:20.796Z,78.20
2018-09-24T02:19:50.920Z,78.00
2018-09-24T02:22:28.227Z,78.20
2018-09-24T02:24:58.725Z,78.10
2018-09-24T02:27:28.433Z,79.90
2018-09-24T02:29:58.295Z,80.00
2018-09-24T02:32:27.163Z,78.70
2018-09-24T02:34:57.373Z,78.20
2018-09-24T02:37:26.182Z,79.60
2018-09-24T02:39:55.265Z,80.20
2018-09-24T02:42:24.160Z,80.40
2018-09-24T02:44:58.267Z,80.10
2018-09-24T02:47:33.959Z,81.00
2018-09-24T02:50:03.088Z,81.40
2018-09-24T02:52:33.088Z,81.40
2018-09-24T02:55:03.612Z,81.90
2018-09-24T02:57:33.160Z,81.90
2018-09-24T03:00:02.617Z,81.20
2018-09-24T03:02:33.924Z,80.90
2018-09-24T03:05:03.454Z,81.30
2018-09-24T03:07:33.716Z,80.90
2018-09-24T03:10:03.099Z,81.20
2018-09-24T03:12:32.239Z,80.60
2018-09-24T03:15:02.297Z,80.40
2018-09-24T03:17:31.901Z,80.70
2018-09-24T03:20:01.757Z,80.00
2018-09-24T03:22:32.394Z,79.10
2018-09-24T03:25:01.468Z,79.50
2018-09-24T03:27:32.303Z,79.00
2018-09-24T03:30:01.769Z,78.70
2018-09-24T03:32:32.564Z,78.50
2018-09-24T03:35:03.598Z,78.10
2018-09-24T03:37:34.603Z,77.90
2018-09-24T03:40:04.968Z,78.00
2018-09-24T03:42:35.006Z,77.80
2018-09-24T03:45:04.597Z,78.00
2018-09-24T03:47:34.813Z,78.30
2018-09-24T03:50:03.716Z,78.70
2018-09-24T03:52:32.708Z,78.90
2018-09-24T03:55:03.554Z,78.30
2018-09-24T03:57:33.173Z,77.70
2018-09-24T04:00:03.153Z,77.70
2018-09-24T04:02:35.225Z,77.50
2018-09-24T04:05:10.922Z,77.60
2018-09-24T04:07:46.849Z,78.00
2018-09-24T04:10:22.559Z,79.00
2018-09-24T04:13:00.223Z,79.60
2018-09-24T04:15:35.679Z,78.70
2018-09-24T04:18:11.519Z,78.30
2018-09-24T04:20:46.774Z,79.50
2018-09-24T04:23:21.455Z,79.90
2018-09-24T04:25:58.025Z,81.00
2018-09-24T04:28:34.181Z,80.50
2018-09-24T04:31:11.850Z,80.50
2018-09-24T04:33:47.737Z,79.90
2018-09-24T04:36:22.709Z,80.60
2018-09-24T04:38:57.927Z,80.30
2018-09-24T04:41:32.549Z,82.40
2018-09-24T04:44:08.230Z,82.10
2018-09-24T04:46:44.260Z,81.90
2018-09-24T04:49:19.535Z,81.70
2018-09-24T04:51:54.594Z,80.50
2018-09-24T04:54:30.503Z,81.10
2018-09-24T04:57:05.342Z,80.50
2018-09-24T04:59:39.686Z,79.70
2018-09-24T05:02:14.346Z,80.30
2018-09-24T05:04:49.196Z,80.50
2018-09-24T05:07:23.430Z,80.90
2018-09-24T05:09:58.825Z,80.50
2018-09-24T05:12:33.172Z,80.60
2018-09-24T05:15:07.382Z,79.80
2018-09-24T05:17:42.047Z,79.50
2018-09-24T05:20:16.542Z,80.00
2018-09-24T05:22:50.790Z,79.70
2018-09-24T05:25:25.911Z,81.10
2018-09-24T05:28:01.181Z,82.60
2018-09-24T05:30:37.459Z,83.50
2018-09-24T05:33:12.254Z,81.80
2018-09-24T05:35:47.554Z,82.20
2018-09-24T05:38:22.181Z,81.10
2018-09-24T05:40:56.821Z,79.90
2018-09-24T05:43:31.668Z,79.60
2018-09-24T05:46:06.595Z,80.00
2018-09-24T05:48:42.940Z,80.10
2018-09-24T05:51:17.416Z,79.90
2018-09-24T05:53:52.795Z,79.40
2018-09-24T05:56:27.252Z,79.40
2018-09-24T05:59:01.629Z,79.20
2018-09-24T06:01:36.293Z,79.60
2018-09-24T06:04:10.849Z,78.90
2018-09-24T06:06:45.640Z,79.70
2018-09-24T06:09:20.773Z,79.00
2018-09-24T06:11:55.438Z,78.70
2018-09-24T06:14:30.019Z,79.30
2018-09-24T06:17:04.779Z,79.50
2018-09-24T06:19:39.388Z,80.10
2018-09-24T06:22:15.038Z,79.50
2018-09-24T06:24:49.597Z,79.70
2018-09-24T06:27:23.910Z,81.10
2018-09-24T06:29:58.202Z,81.60
2018-09-24T06:32:32.615Z,82.00
2018-09-24T06:35:07.934Z,82.50
2018-09-24T06:37:43.440Z,82.30
2018-09-24T06:40:18.481Z,82.90
2018-09-24T06:42:53.734Z,83.00
2018-09-24T06:45:28.907Z,82.80
2018-09-24T06:48:03.514Z,81.90
2018-09-24T06:50:37.939Z,81.10
2018-09-24T06:53:12.505Z,81.00
2018-09-24T06:55:47.127Z,82.20
2018-09-24T06:58:21.783Z,82.80
2018-09-24T07:00:56.565Z,82.90
2018-09-24T07:03:31.053Z,82.50
2018-09-24T07:06:05.622Z,82.80
2018-09-24T07:08:40.163Z,82.20
2018-09-24T07:11:16.747Z,81.50
2018-09-24T07:13:51.325Z,80.00
2018-09-24T07:16:25.625Z,79.10
2018-09-24T07:19:00.142Z,79.60
2018-09-24T07:21:35.505Z,78.10
2018-09-24T07:24:10.029Z,78.80
2018-09-24T07:26:44.759Z,78.20
2018-09-24T07:29:19.381Z,78.40
2018-09-24T07:31:53.877Z,78.90
2018-09-24T07:34:28.394Z,80.20
2018-09-24T07:37:02.581Z,80.20
2018-09-24T07:39:36.859Z,81.00
2018-09-24T07:42:11.331Z,81.40
2018-09-24T07:44:45.774Z,81.40
2018-09-24T07:47:19.991Z,81.60
2018-09-24T07:49:54.421Z,81.00
2018-09-24T07:52:28.622Z,81.00
2018-09-24T07:55:03.144Z,81.00
2018-09-24T07:57:37.467Z,79.80
2018-09-24T08:00:11.979Z,76.70
2018-09-24T08:02:48.227Z,77.00
2018-09-24T08:05:23.172Z,74.70
2018-09-24T08:07:58.912Z,73.70
2018-09-24T08:10:33.473Z,73.90
2018-09-24T08:13:08.083Z,73.50
2018-09-24T08:15:42.732Z,75.30
2018-09-24T08:18:17.407Z,74.80
2018-09-24T08:20:52.010Z,72.20
2018-09-24T08:27:04.156Z,69.40
2018-09-24T08:29:54.152Z,68.10
2018-09-24T08:32:28.319Z,69.00
2018-09-24T08:35:02.812Z,70.80
2018-09-24T08:37:38.299Z,73.20
2018-09-24T08:40:12.981Z,73.10
2018-09-24T08:42:47.442Z,68.90
2018-09-24T08:45:23.045Z,66.10
2018-09-24T08:47:57.387Z,70.20
2018-09-24T08:50:31.703Z,68.40
2018-09-24T08:53:06.093Z,66.40
2018-09-24T08:55:40.764Z,64.00
2018-09-24T08:58:16.134Z,66.30
2018-09-24T09:00:50.422Z,66.40
2018-09-24T09:03:27.501Z,68.30
2018-09-24T09:30:37.970Z,68.20
2018-09-24T09:33:15.229Z,62.60
2018-09-24T09:35:51.801Z,63.00
2018-09-24T09:38:27.200Z,64.60
2018-09-24T09:41:04.868Z,65.40
2018-09-24T09:48:40.269Z,66.60
2018-09-24T09:51:14.765Z,65.90
2018-09-24T09:53:51.520Z,64.90
2018-09-24T09:56:26.593Z,60.10
2018-09-24T09:59:01.182Z,62.00
2018-09-24T10:01:43.597Z,60.60
2018-09-24T10:04:19.877Z,61.70
2018-09-24T10:06:55.008Z,60.10
2018-09-24T10:09:30.371Z,63.30
2018-09-24T10:25:14.256Z,63.50
2018-09-24T10:27:48.509Z,54.40
2018-09-24T10:30:23.100Z,54.20
2018-09-24T10:32:57.500Z,46.50
2018-09-24T10:35:32.527Z,52.30
2018-09-24T10:38:06.810Z,56.90
2018-09-24T10:40:41.712Z,57.60
2018-09-24T10:43:16.113Z,58.80
2018-09-24T10:45:50.785Z,60.70
2018-09-24T10:48:25.136Z,61.00
2018-09-24T10:51:00.025Z,59.20
2018-09-24T10:53:35.635Z,59.90
2018-09-24T10:56:11.125Z,57.30
2018-09-24T10:58:45.727Z,57.10
2018-09-24T11:01:20.199Z,55.10
2018-09-24T11:04:11.789Z,58.50
2018-09-24T11:06:46.175Z,50.80
2018-09-24T11:09:21.922Z,52.60
2018-09-24T11:11:56.538Z,50.20
2018-09-24T11:14:42.038Z,51.20
2018-09-24T11:17:21.541Z,50.20
2018-09-24T11:20:05.406Z,55.00
2018-09-24T11:22:40.543Z,44.10
2018-09-24T11:25:15.727Z,57.80
2018-09-24T11:27:50.172Z,59.30
2018-09-24T11:30:24.820Z,61.60
2018-09-24T11:32:59.315Z,69.40
2018-09-24T11:35:34.067Z,65.30
2018-09-24T11:38:09.152Z,67.00
2018-09-24T11:40:44.074Z,67.20
2018-09-24T11:43:19.108Z,71.00
2018-09-24T11:45:53.655Z,65.00
2018-09-24T11:48:27.975Z,64.90
2018-09-24T11:51:02.311Z,63.70
2018-09-24T11:53:36.619Z,64.00
2018-09-24T11:56:11.209Z,67.20
2018-09-24T11:58:45.789Z,59.10
2018-09-24T12:01:20.027Z,54.30
2018-09-24T12:03:54.521Z,53.70
2018-09-24T12:06:30.025Z,55.40
2018-09-24T12:09:05.138Z,48.20
2018-09-24T12:11:41.110Z,54.80
2018-09-24T12:14:16.983Z,52.00
2018-09-24T12:16:52.517Z,47.00
2018-09-24T12:19:26.951Z,47.60
2018-09-24T12:22:01.344Z,48.40
2018-09-24T12:24:35.629Z,53.50
2018-09-24T12:27:10.076Z,42.80
2018-09-24T12:29:44.304Z,41.00
2018-09-24T12:32:18.645Z,43.00
2018-09-24T12:34:52.935Z,44.30
2018-09-24T12:37:27.657Z,42.30
2018-09-24T12:40:02.026Z,41.90
2018-09-24T12:42:36.450Z,39.30
2018-09-24T12:45:10.723Z,37.50
2018-09-24T12:47:45.098Z,38.70
2018-09-24T12:50:20.445Z,41.30
2018-09-24T12:52:55.941Z,41.60
2018-09-24T12:55:30.399Z,40.20
2018-09-24T12:58:04.831Z,41.60
2018-09-24T13:00:39.324Z,43.00
2018-09-24T13:03:13.897Z,42.00
2018-09-24T13:05:48.516Z,43.70
2018-09-24T13:08:23.739Z,44.20
2018-09-24T13:10:58.861Z,38.10
2018-09-24T13:13:33.292Z,35.10
2018-09-24T13:16:07.409Z,33.70
2018-09-24T13:18:41.943Z,33.90
2018-09-24T13:21:16.417Z,36.00
2018-09-24T13:23:50.700Z,32.70
2018-09-24T13:26:25.222Z,36.20
2018-09-24T13:29:00.416Z,37.50
2018-09-24T13:31:34.707Z,36.50
2018-09-24T13:34:09.208Z,35.20
2018-09-24T13:36:43.111Z,33.20
2018-09-24T13:39:17.691Z,32.20
2018-09-24T13:41:51.908Z,32.30
2018-09-24T13:44:26.201Z,31.70
2018-09-24T13:47:00.393Z,29.90
2018-09-24T13:49:34.836Z,32.60
2018-09-24T13:52:09.190Z,31.10
2018-09-24T13:54:43.617Z,33.80
2018-09-24T13:57:18.027Z,33.90
2018-09-24T13:59:52.622Z,36.20
2018-09-24T14:02:26.977Z,36.20
2018-09-24T14:05:01.252Z,36.40
2018-09-24T14:07:36.853Z,37.10
2018-09-24T14:10:11.677Z,38.60
2018-09-24T14:12:46.175Z,38.20
2018-09-24T14:15:20.758Z,38.90
2018-09-24T14:17:55.007Z,37.10
2018-09-24T14:20:29.387Z,38.70
2018-09-24T14:23:04.112Z,42.10
2018-09-24T14:25:38.340Z,37.40
2018-09-24T14:28:12.829Z,35.20
2018-09-24T14:30:48.378Z,37.60
2018-09-24T14:33:23.191Z,33.20
2018-09-24T14:35:57.738Z,33.00
2018-09-24T14:38:33.136Z,31.90
2018-09-24T14:41:08.207Z,31.90
2018-09-24T14:43:42.569Z,29.80
2018-09-24T14:48:54.866Z,31.00
2018-09-24T14:51:32.070Z,29.90
2018-09-24T14:54:06.435Z,28.80
2018-09-24T14:59:20.712Z,28.20
2018-09-24T15:01:55.058Z,29.40
2018-09-24T15:04:29.383Z,29.20
2018-09-24T15:07:03.643Z,29.90
2018-09-24T15:09:38.708Z,31.10
2018-09-24T15:12:13.037Z,31.10
2018-09-24T15:14:47.423Z,30.30
2018-09-24T15:17:21.847Z,30.30
2018-09-24T15:19:57.511Z,31.30
2018-09-24T15:22:31.831Z,30.80
2018-09-24T15:25:06.493Z,29.80
2018-09-24T15:27:40.848Z,31.60
2018-09-24T15:30:15.135Z,32.60
2018-09-24T15:32:49.807Z,32.10
2018-09-24T15:35:24.638Z,32.20
2018-09-24T15:37:59.479Z,33.00
2018-09-24T15:40:33.989Z,34.70
2018-09-24T15:43:08.398Z,32.40
2018-09-24T15:45:42.848Z,33.30
2018-09-24T15:48:17.701Z,33.10
2018-09-24T15:50:52.134Z,33.20
2018-09-24T15:53:27.143Z,33.80
2018-09-24T15:56:01.620Z,34.40
2018-09-24T15:58:36.116Z,33.20
2018-09-24T16:01:10.536Z,34.00
2018-09-24T16:03:44.997Z,33.90
2018-09-24T16:06:19.399Z,34.80
2018-09-24T16:08:53.796Z,35.90
2018-09-24T16:11:28.263Z,35.50
2018-09-24T16:14:02.711Z,34.80
2018-09-24T16:16:36.860Z,33.50
2018-09-24T16:19:11.806Z,33.50
2018-09-24T16:21:46.512Z,34.10
2018-09-24T16:24:20.747Z,35.90
2018-09-24T16:26:55.068Z,35.30
2018-09-24T16:29:29.391Z,36.70
2018-09-24T16:32:03.746Z,37.70
2018-09-24T16:34:38.089Z,39.80
2018-09-24T16:37:12.544Z,41.00
2018-09-24T16:39:46.820Z,42.30
2018-09-24T16:42:21.213Z,41.50
2018-09-24T16:44:55.788Z,41.60
2018-09-24T16:47:30.948Z,41.20
2018-09-24T16:50:05.347Z,41.70
2018-09-24T16:52:40.680Z,39.80
2018-09-24T16:55:14.944Z,40.30
2018-09-24T16:57:49.404Z,40.20
2018-09-24T17:00:25.123Z,40.90
2018-09-24T17:03:00.251Z,41.50
2018-09-24T17:05:34.714Z,42.10
2018-09-24T17:08:09.066Z,42.40
2018-09-24T17:10:44.726Z,43.30
2018-09-24T17:13:19.244Z,44.60
2018-09-24T17:15:53.654Z,43.80
2018-09-24T17:18:28.222Z,45.40
2018-09-24T17:21:02.414Z,46.30
2018-09-24T17:23:36.688Z,46.60
2018-09-24T17:26:12.582Z,46.50
2018-09-24T17:28:47.057Z,47.90
2018-09-24T17:31:21.630Z,48.30
2018-09-24T17:33:56.027Z,48.30
2018-09-24T17:36:30.202Z,47.80
2018-09-24T17:39:04.628Z,48.40
2018-09-24T17:41:39.062Z,49.00
2018-09-24T17:44:13.603Z,48.90
2018-09-24T17:46:49.425Z,48.90
2018-09-24T17:49:24.492Z,49.40
2018-09-24T17:51:59.063Z,49.10
2018-09-24T17:54:33.748Z,49.80
2018-09-24T17:57:08.968Z,49.70
2018-09-24T17:59:45.103Z,50.90
2018-09-24T18:02:19.903Z,51.10
2018-09-24T18:04:55.369Z,52.10
2018-09-24T18:07:29.852Z,52.80
2018-09-24T18:10:04.372Z,52.60
2018-09-24T18:12:39.353Z,53.20
2018-09-24T18:15:14.436Z,53.80
2018-09-24T18:17:49.490Z,53.60
2018-09-24T18:20:23.816Z,54.10
2018-09-24T18:23:00.320Z,54.80
2018-09-24T18:25:35.630Z,55.10
2018-09-24T18:28:11.336Z,55.80
2018-09-24T18:30:46.965Z,55.70
2018-09-24T18:33:21.859Z,56.10
2018-09-24T18:35:58.139Z,57.00
2018-09-24T18:38:32.726Z,58.10
2018-09-24T18:41:07.230Z,57.70
2018-09-24T18:43:42.269Z,58.70
2018-09-24T18:46:16.621Z,58.90
2018-09-24T18:48:50.910Z,59.60
2018-09-24T18:51:26.269Z,59.00
2018-09-24T18:54:04.433Z,59.50
2018-09-24T18:56:40.338Z,58.80
2018-09-24T18:59:16.753Z,60.40
2018-09-24T19:01:51.561Z,60.60
2018-09-24T19:04:26.121Z,60.40
2018-09-24T19:07:02.969Z,60.60
2018-09-24T19:09:38.458Z,60.90
2018-09-24T19:12:13.031Z,61.20
2018-09-24T19:14:48.712Z,61.50
2018-09-24T19:17:23.237Z,62.00
2018-09-24T19:19:58.241Z,62.40
2018-09-24T19:22:35.472Z,61.80
2018-09-24T19:25:09.968Z,63.10
2018-09-24T19:27:44.575Z,63.40
2018-09-24T19:30:19.041Z,64.20
2018-09-24T19:32:54.515Z,64.20
2018-09-24T19:35:29.170Z,63.50
2018-09-24T19:38:03.130Z,64.10
2018-09-24T19:40:38.611Z,63.60
2018-09-24T19:43:15.746Z,63.80
2018-09-24T19:45:50.127Z,64.10
2018-09-24T19:48:24.502Z,65.00
2018-09-24T19:51:01.494Z,66.00
2018-09-24T19:53:36.531Z,65.70
2018-09-24T19:56:10.927Z,65.10
2018-09-24T19:58:45.524Z,64.20
2018-09-24T20:01:20.033Z,63.40
2018-09-24T20:03:55.223Z,63.30
2018-09-24T20:06:29.764Z,62.60
2018-09-24T20:09:04.403Z,63.10
2018-09-24T20:11:38.783Z,62.20
2018-09-24T20:14:13.451Z,63.10
2018-09-24T20:16:47.867Z,63.90
2018-09-24T20:19:22.538Z,63.90
2018-09-24T20:21:56.488Z,64.40
2018-09-24T20:24:31.613Z,64.70
2018-09-24T20:27:06.123Z,64.40
2018-09-24T20:29:40.642Z,65.20
2018-09-24T20:32:15.256Z,64.90
2018-09-24T20:34:50.116Z,65.10
2018-09-24T20:37:24.760Z,65.40
2018-09-24T20:40:00.751Z,65.70
2018-09-24T20:42:39.127Z,65.80
2018-09-24T20:45:14.331Z,65.00
2018-09-24T20:47:48.779Z,65.50
2018-09-24T20:50:23.428Z,66.20
2018-09-24T20:52:57.947Z,66.60
2018-09-24T20:55:32.574Z,66.30
2018-09-24T20:58:07.106Z,66.20
2018-09-24T21:00:41.593Z,67.00
2018-09-24T21:03:18.919Z,67.70
2018-09-24T21:05:53.768Z,68.00
2018-09-24T21:08:29.309Z,68.20
2018-09-24T21:11:04.751Z,68.20
2018-09-24T21:13:41.035Z,69.50
2018-09-24T21:16:15.710Z,69.20
2018-09-24T21:18:50.516Z,69.80
2018-09-24T21:21:26.095Z,69.60
2018-09-24T21:24:02.452Z,69.70
2018-09-24T21:26:36.910Z,69.60
2018-09-24T21:29:12.741Z,69.90
2018-09-24T21:31:47.388Z,70.60
2018-09-24T21:34:22.302Z,70.20
2018-09-24T21:36:56.752Z,70.20
2018-09-24T21:39:31.606Z,69.60
2018-09-24T21:42:06.113Z,70.00
2018-09-24T21:44:41.318Z,69.90
2018-09-24T21:47:15.881Z,69.60
2018-09-24T21:49:51.114Z,69.60
2018-09-24T21:52:26.883Z,69.30
2018-09-24T21:55:01.704Z,69.20
2018-09-24T21:57:36.483Z,68.70
2018-09-24T22:00:12.613Z,69.10
2018-09-24T22:02:48.084Z,67.80
2018-09-24T22:05:22.863Z,69.10
2018-09-24T22:07:57.829Z,69.20
2018-09-24T22:10:33.715Z,69.20
2018-09-24T22:13:09.031Z,70.00
2018-09-24T22:15:43.554Z,69.90
2018-09-24T22:20:58.244Z,69.80
2018-09-24T22:23:33.056Z,70.30
2018-09-24T22:26:07.681Z,71.40
2018-09-24T22:28:43.069Z,71.70
2018-09-24T22:31:17.847Z,71.80
2018-09-24T22:33:54.669Z,71.80
2018-09-24T22:36:31.016Z,72.10
2018-09-24T22:39:07.838Z,71.20
2018-09-24T22:41:43.691Z,71.50
2018-09-24T22:44:19.667Z,71.90
2018-09-24T22:46:54.874Z,72.00
2018-09-24T22:49:29.322Z,72.50
2018-09-24T22:52:04.130Z,71.00
2018-09-24T22:54:38.747Z,71.10
2018-09-24T22:57:13.693Z,70.60
2018-09-24T22:59:49.416Z,70.30
2018-09-24T23:02:24.006Z,71.30
2018-09-24T23:04:58.406Z,71.40
2018-09-24T23:07:32.795Z,70.80
2018-09-24T23:10:07.934Z,71.10
2018-09-24T23:12:43.392Z,70.00
2018-09-24T23:15:18.434Z,71.10
2018-09-24T23:17:53.671Z,71.40
2018-09-24T23:20:29.445Z,71.10
2018-09-24T23:23:04.189Z,71.50
2018-09-24T23:25:38.913Z,71.10
2018-09-24T23:28:13.531Z,71.30
2018-09-24T23:30:48.112Z,71.00
2018-09-24T23:33:23.085Z,71.10
2018-09-24T23:35:57.764Z,72.20
2018-09-24T23:38:32.476Z,72.90
2018-09-24T23:41:07.697Z,71.60
2018-09-24T23:43:42.291Z,73.40
2018-09-24T23:46:16.871Z,73.00
2018-09-24T23:48:54.434Z,72.80
2018-09-24T23:51:29.827Z,72.00
2018-09-24T23:54:04.350Z,72.50
2018-09-24T23:56:39.755Z,72.90
2018-09-24T23:59:15.075Z,72.70
